KFHR/FHR METAR and TAF weather

Enter ICAO airport designator
Station Type Date Time Source
KFHR METAR 2019/09/21 21:53 UTC NOAA

KFHR 212153Z AUTO 15005KT 10SM OVC045 19/13 A3008 RMK AO2 SLP186 T01890128 $


Station Type Date Time Source
KFHR Decoded METAR 2019/09/21 21:53 UTC NOAA

FRIDAY HARBOR AIRPORT, WA, United States (KFHR) 48-31N 123-02W 32M
Sep 21, 2019 - 05:53 PM EDT / 2019.09.21 2153 UTC
Wind: from the SSE (150 degrees) at 6 MPH (5 KT):0
Visibility: 10 mile(s):0
Sky conditions: overcast
Temperature: 66.0 F (18.9 C)
Dew Point: 55.0 F (12.8 C)
Relative Humidity: 67%
Pressure (altimeter): 30.08 in. Hg (1018 hPa)
ob: KFHR 212153Z AUTO 15005KT 10SM OVC045 19/13 A3008 RMK AO2 SLP186 T01890128
cycle: 22

Station Type Date Time Source
KFHR TAF UTC NOAA

Error!

Example: see airport list